sensor_id;sensor_type;location;lat;lon;timestamp;P1;durP1;ratioP1;P2;durP2;ratioP2
60722;SDS011;46574;52.818;6.516;2023-11-21T00:02:19;24.23;;;13.90;;
60722;SDS011;46574;52.818;6.516;2023-11-21T00:04:45;25.75;;;14.45;;
60722;SDS011;46574;52.818;6.516;2023-11-21T00:07:12;28.40;;;15.55;;
60722;SDS011;46574;52.818;6.516;2023-11-21T00:09:38;28.70;;;15.82;;
60722;SDS011;46574;52.818;6.516;2023-11-21T00:12:03;23.80;;;13.70;;
60722;SDS011;46574;52.818;6.516;2023-11-21T00:14:29;24.58;;;12.95;;
60722;SDS011;46574;52.818;6.516;2023-11-21T00:16:55;23.63;;;14.57;;
60722;SDS011;46574;52.818;6.516;2023-11-21T00:19:20;30.50;;;15.82;;
60722;SDS011;46574;52.818;6.516;2023-11-21T00:21:46;24.92;;;14.13;;
60722;SDS011;46574;52.818;6.516;2023-11-21T00:24:12;27.63;;;15.80;;
60722;SDS011;46574;52.818;6.516;2023-11-21T00:26:41;27.58;;;14.60;;
60722;SDS011;46574;52.818;6.516;2023-11-21T00:29:07;33.58;;;16.15;;
60722;SDS011;46574;52.818;6.516;2023-11-21T00:31:33;24.83;;;13.65;;
60722;SDS011;46574;52.818;6.516;2023-11-21T00:34:02;28.92;;;14.95;;
60722;SDS011;46574;52.818;6.516;2023-11-21T00:36:30;36.28;;;16.80;;
60722;SDS011;46574;52.818;6.516;2023-11-21T00:38:56;27.55;;;14.48;;
60722;SDS011;46574;52.818;6.516;2023-11-21T00:41:23;22.13;;;13.10;;
60722;SDS011;46574;52.818;6.516;2023-11-21T00:43:48;34.05;;;16.20;;
60722;SDS011;46574;52.818;6.516;2023-11-21T00:46:14;31.60;;;15.48;;
60722;SDS011;46574;52.818;6.516;2023-11-21T00:48:39;36.80;;;18.00;;
60722;SDS011;46574;52.818;6.516;2023-11-21T00:51:05;32.85;;;16.33;;
60722;SDS011;46574;52.818;6.516;2023-11-21T00:53:31;28.17;;;14.70;;
60722;SDS011;46574;52.818;6.516;2023-11-21T00:55:57;24.20;;;14.20;;
60722;SDS011;46574;52.818;6.516;2023-11-21T00:58:26;31.70;;;15.85;;
60722;SDS011;46574;52.818;6.516;2023-11-21T01:03:18;29.02;;;15.32;;
60722;SDS011;46574;52.818;6.516;2023-11-21T01:05:44;32.88;;;17.17;;
60722;SDS011;46574;52.818;6.516;2023-11-21T01:08:10;31.52;;;17.10;;
60722;SDS011;46574;52.818;6.516;2023-11-21T01:10:36;32.08;;;16.88;;
60722;SDS011;46574;52.818;6.516;2023-11-21T01:13:02;30.88;;;16.33;;
60722;SDS011;46574;52.818;6.516;2023-11-21T01:15:30;36.37;;;17.17;;
60722;SDS011;46574;52.818;6.516;2023-11-21T01:17:56;29.42;;;15.20;;
60722;SDS011;46574;52.818;6.516;2023-11-21T01:20:21;38.50;;;17.75;;
60722;SDS011;46574;52.818;6.516;2023-11-21T01:22:47;32.80;;;15.77;;
60722;SDS011;46574;52.818;6.516;2023-11-21T01:25:14;35.80;;;17.95;;
60722;SDS011;46574;52.818;6.516;2023-11-21T01:27:41;34.63;;;18.25;;
60722;SDS011;46574;52.818;6.516;2023-11-21T01:30:07;37.53;;;17.48;;
60722;SDS011;46574;52.818;6.516;2023-11-21T01:32:35;29.08;;;16.25;;
60722;SDS011;46574;52.818;6.516;2023-11-21T01:35:02;27.27;;;14.18;;
60722;SDS011;46574;52.818;6.516;2023-11-21T01:37:30;35.28;;;16.30;;
60722;SDS011;46574;52.818;6.516;2023-11-21T01:39:56;28.20;;;14.38;;
60722;SDS011;46574;52.818;6.516;2023-11-21T01:42:22;30.60;;;16.55;;
60722;SDS011;46574;52.818;6.516;2023-11-21T01:44:47;38.00;;;17.35;;
60722;SDS011;46574;52.818;6.516;2023-11-21T01:47:14;36.17;;;16.52;;
60722;SDS011;46574;52.818;6.516;2023-11-21T01:49:43;35.15;;;16.63;;
60722;SDS011;46574;52.818;6.516;2023-11-21T01:52:10;40.05;;;18.40;;
60722;SDS011;46574;52.818;6.516;2023-11-21T01:54:36;27.38;;;14.70;;
60722;SDS011;46574;52.818;6.516;2023-11-21T01:57:03;27.27;;;14.10;;
60722;SDS011;46574;52.818;6.516;2023-11-21T01:59:34;36.53;;;17.33;;
60722;SDS011;46574;52.818;6.516;2023-11-21T02:02:02;27.35;;;14.02;;
60722;SDS011;46574;52.818;6.516;2023-11-21T02:04:32;32.15;;;16.65;;
60722;SDS011;46574;52.818;6.516;2023-11-21T02:06:58;38.00;;;17.38;;
60722;SDS011;46574;52.818;6.516;2023-11-21T02:09:28;29.27;;;16.08;;
60722;SDS011;46574;52.818;6.516;2023-11-21T02:11:55;29.67;;;14.65;;
60722;SDS011;46574;52.818;6.516;2023-11-21T02:14:21;31.73;;;18.02;;
60722;SDS011;46574;52.818;6.516;2023-11-21T02:16:48;28.80;;;14.68;;
60722;SDS011;46574;52.818;6.516;2023-11-21T02:19:18;33.92;;;17.70;;
60722;SDS011;46574;52.818;6.516;2023-11-21T02:21:50;30.63;;;14.90;;
60722;SDS011;46574;52.818;6.516;2023-11-21T02:24:20;29.55;;;15.80;;
60722;SDS011;46574;52.818;6.516;2023-11-21T02:26:47;28.33;;;15.00;;
60722;SDS011;46574;52.818;6.516;2023-11-21T02:29:19;40.30;;;18.48;;
60722;SDS011;46574;52.818;6.516;2023-11-21T02:31:47;34.17;;;17.08;;
60722;SDS011;46574;52.818;6.516;2023-11-21T02:34:16;33.67;;;16.75;;
60722;SDS011;46574;52.818;6.516;2023-11-21T02:36:46;34.78;;;17.38;;
60722;SDS011;46574;52.818;6.516;2023-11-21T02:39:15;43.20;;;19.25;;
60722;SDS011;46574;52.818;6.516;2023-11-21T02:41:47;31.65;;;15.30;;
60722;SDS011;46574;52.818;6.516;2023-11-21T02:44:13;25.02;;;13.48;;
60722;SDS011;46574;52.818;6.516;2023-11-21T02:46:38;35.33;;;18.13;;
60722;SDS011;46574;52.818;6.516;2023-11-21T02:49:05;29.55;;;15.70;;
60722;SDS011;46574;52.818;6.516;2023-11-21T02:51:35;27.25;;;14.93;;
60722;SDS011;46574;52.818;6.516;2023-11-21T02:54:03;29.55;;;15.80;;
60722;SDS011;46574;52.818;6.516;2023-11-21T02:56:31;25.70;;;14.02;;
60722;SDS011;46574;52.818;6.516;2023-11-21T02:58:59;39.67;;;17.98;;
60722;SDS011;46574;52.818;6.516;2023-11-21T03:01:25;32.40;;;17.80;;
60722;SDS011;46574;52.818;6.516;2023-11-21T03:03:51;48.60;;;18.90;;
60722;SDS011;46574;52.818;6.516;2023-11-21T03:06:20;26.17;;;14.98;;
60722;SDS011;46574;52.818;6.516;2023-11-21T03:08:46;27.33;;;14.98;;
60722;SDS011;46574;52.818;6.516;2023-11-21T03:11:13;43.55;;;20.65;;
60722;SDS011;46574;52.818;6.516;2023-11-21T03:13:39;42.83;;;18.92;;
60722;SDS011;46574;52.818;6.516;2023-11-21T03:16:07;38.70;;;19.40;;
60722;SDS011;46574;52.818;6.516;2023-11-21T03:18:34;41.75;;;20.67;;
60722;SDS011;46574;52.818;6.516;2023-11-21T03:20:59;36.17;;;18.48;;
60722;SDS011;46574;52.818;6.516;2023-11-21T03:23:25;49.05;;;19.83;;
60722;SDS011;46574;52.818;6.516;2023-11-21T03:25:51;30.30;;;16.55;;
60722;SDS011;46574;52.818;6.516;2023-11-21T03:28:16;46.53;;;19.83;;
60722;SDS011;46574;52.818;6.516;2023-11-21T03:30:43;47.05;;;21.08;;
60722;SDS011;46574;52.818;6.516;2023-11-21T03:33:08;40.90;;;19.08;;
60722;SDS011;46574;52.818;6.516;2023-11-21T03:35:34;29.90;;;15.85;;
60722;SDS011;46574;52.818;6.516;2023-11-21T03:38:00;29.52;;;15.30;;
60722;SDS011;46574;52.818;6.516;2023-11-21T03:40:25;24.70;;;14.38;;
60722;SDS011;46574;52.818;6.516;2023-11-21T03:42:51;45.30;;;19.70;;
60722;SDS011;46574;52.818;6.516;2023-11-21T03:45:17;34.10;;;17.30;;
60722;SDS011;46574;52.818;6.516;2023-11-21T03:47:43;40.83;;;19.15;;
60722;SDS011;46574;52.818;6.516;2023-11-21T03:50:09;36.08;;;19.25;;
60722;SDS011;46574;52.818;6.516;2023-11-21T03:52:35;39.20;;;19.42;;
60722;SDS011;46574;52.818;6.516;2023-11-21T03:55:02;34.65;;;16.67;;
60722;SDS011;46574;52.818;6.516;2023-11-21T03:57:28;34.92;;;16.65;;
60722;SDS011;46574;52.818;6.516;2023-11-21T03:59:54;34.40;;;18.17;;
60722;SDS011;46574;52.818;6.516;2023-11-21T04:02:19;31.92;;;18.02;;
60722;SDS011;46574;52.818;6.516;2023-11-21T04:04:45;26.88;;;16.58;;
60722;SDS011;46574;52.818;6.516;2023-11-21T04:07:10;41.50;;;19.27;;
60722;SDS011;46574;52.818;6.516;2023-11-21T04:09:38;27.40;;;17.30;;
60722;SDS011;46574;52.818;6.516;2023-11-21T04:12:04;33.42;;;18.85;;
60722;SDS011;46574;52.818;6.516;2023-11-21T04:14:30;42.22;;;20.60;;
60722;SDS011;46574;52.818;6.516;2023-11-21T04:16:56;28.27;;;17.80;;
60722;SDS011;46574;52.818;6.516;2023-11-21T04:19:22;28.17;;;15.93;;
60722;SDS011;46574;52.818;6.516;2023-11-21T04:21:48;39.60;;;20.55;;
60722;SDS011;46574;52.818;6.516;2023-11-21T04:24:14;27.40;;;15.70;;
60722;SDS011;46574;52.818;6.516;2023-11-21T04:26:39;27.55;;;16.90;;
60722;SDS011;46574;52.818;6.516;2023-11-21T04:29:05;28.38;;;17.20;;
60722;SDS011;46574;52.818;6.516;2023-11-21T04:31:30;32.50;;;18.55;;
60722;SDS011;46574;52.818;6.516;2023-11-21T04:33:57;23.10;;;14.82;;
60722;SDS011;46574;52.818;6.516;2023-11-21T04:36:22;25.52;;;16.13;;
60722;SDS011;46574;52.818;6.516;2023-11-21T04:38:48;21.48;;;13.20;;
60722;SDS011;46574;52.818;6.516;2023-11-21T04:41:14;23.85;;;15.45;;
60722;SDS011;46574;52.818;6.516;2023-11-21T04:43:39;23.20;;;14.80;;
60722;SDS011;46574;52.818;6.516;2023-11-21T04:46:05;24.92;;;16.58;;
60722;SDS011;46574;52.818;6.516;2023-11-21T04:48:32;21.88;;;14.07;;
60722;SDS011;46574;52.818;6.516;2023-11-21T04:50:58;26.02;;;16.35;;
60722;SDS011;46574;52.818;6.516;2023-11-21T04:53:23;30.00;;;19.52;;
60722;SDS011;46574;52.818;6.516;2023-11-21T04:55:49;36.20;;;20.00;;
60722;SDS011;46574;52.818;6.516;2023-11-21T04:58:15;29.52;;;18.42;;
60722;SDS011;46574;52.818;6.516;2023-11-21T05:00:40;26.45;;;16.20;;
60722;SDS011;46574;52.818;6.516;2023-11-21T05:03:06;26.73;;;17.77;;
60722;SDS011;46574;52.818;6.516;2023-11-21T05:05:32;22.63;;;16.35;;
60722;SDS011;46574;52.818;6.516;2023-11-21T05:08:01;24.80;;;17.23;;
60722;SDS011;46574;52.818;6.516;2023-11-21T05:10:27;26.60;;;16.75;;
60722;SDS011;46574;52.818;6.516;2023-11-21T05:12:54;29.20;;;17.60;;
60722;SDS011;46574;52.818;6.516;2023-11-21T05:15:20;30.15;;;17.38;;
60722;SDS011;46574;52.818;6.516;2023-11-21T05:17:47;22.90;;;15.77;;
60722;SDS011;46574;52.818;6.516;2023-11-21T05:20:17;24.52;;;16.27;;
60722;SDS011;46574;52.818;6.516;2023-11-21T05:22:45;21.70;;;15.73;;
60722;SDS011;46574;52.818;6.516;2023-11-21T05:25:14;23.02;;;15.20;;
60722;SDS011;46574;52.818;6.516;2023-11-21T05:27:40;18.88;;;14.13;;
60722;SDS011;46574;52.818;6.516;2023-11-21T05:30:05;22.35;;;15.45;;
60722;SDS011;46574;52.818;6.516;2023-11-21T05:32:33;32.63;;;19.17;;
60722;SDS011;46574;52.818;6.516;2023-11-21T05:34:59;21.35;;;14.90;;
60722;SDS011;46574;52.818;6.516;2023-11-21T05:37:25;20.25;;;15.25;;
60722;SDS011;46574;52.818;6.516;2023-11-21T05:39:52;19.98;;;14.80;;
60722;SDS011;46574;52.818;6.516;2023-11-21T05:42:18;18.35;;;13.55;;
60722;SDS011;46574;52.818;6.516;2023-11-21T05:44:44;20.42;;;14.52;;
60722;SDS011;46574;52.818;6.516;2023-11-21T05:47:10;17.73;;;13.00;;
60722;SDS011;46574;52.818;6.516;2023-11-21T05:49:38;25.67;;;16.92;;
60722;SDS011;46574;52.818;6.516;2023-11-21T05:52:04;22.25;;;15.98;;
60722;SDS011;46574;52.818;6.516;2023-11-21T05:54:31;22.55;;;15.35;;
60722;SDS011;46574;52.818;6.516;2023-11-21T05:56:57;19.90;;;14.55;;
60722;SDS011;46574;52.818;6.516;2023-11-21T05:59:23;21.73;;;16.10;;
60722;SDS011;46574;52.818;6.516;2023-11-21T06:01:49;19.27;;;14.50;;
60722;SDS011;46574;52.818;6.516;2023-11-21T06:04:14;24.40;;;15.57;;
60722;SDS011;46574;52.818;6.516;2023-11-21T06:06:40;20.38;;;14.65;;
60722;SDS011;46574;52.818;6.516;2023-11-21T06:09:06;21.08;;;13.77;;
60722;SDS011;46574;52.818;6.516;2023-11-21T06:11:34;23.23;;;16.60;;
60722;SDS011;46574;52.818;6.516;2023-11-21T06:14:00;29.52;;;18.92;;
60722;SDS011;46574;52.818;6.516;2023-11-21T06:16:25;28.15;;;17.80;;
60722;SDS011;46574;52.818;6.516;2023-11-21T06:18:52;25.00;;;17.15;;
60722;SDS011;46574;52.818;6.516;2023-11-21T06:21:18;30.08;;;18.67;;
60722;SDS011;46574;52.818;6.516;2023-11-21T06:23:44;25.85;;;17.10;;
60722;SDS011;46574;52.818;6.516;2023-11-21T06:26:10;23.70;;;15.60;;
60722;SDS011;46574;52.818;6.516;2023-11-21T06:28:35;25.77;;;16.92;;
60722;SDS011;46574;52.818;6.516;2023-11-21T06:31:01;28.77;;;17.45;;
60722;SDS011;46574;52.818;6.516;2023-11-21T06:33:33;26.15;;;17.48;;
60722;SDS011;46574;52.818;6.516;2023-11-21T06:35:59;28.52;;;17.92;;
60722;SDS011;46574;52.818;6.516;2023-11-21T06:38:28;30.52;;;18.83;;
60722;SDS011;46574;52.818;6.516;2023-11-21T06:40:58;29.25;;;18.27;;
60722;SDS011;46574;52.818;6.516;2023-11-21T06:43:27;29.80;;;18.75;;
60722;SDS011;46574;52.818;6.516;2023-11-21T06:45:53;37.20;;;21.58;;
60722;SDS011;46574;52.818;6.516;2023-11-21T06:48:19;44.80;;;23.00;;
60722;SDS011;46574;52.818;6.516;2023-11-21T06:50:45;35.65;;;20.67;;
60722;SDS011;46574;52.818;6.516;2023-11-21T06:53:11;29.90;;;19.73;;
60722;SDS011;46574;52.818;6.516;2023-11-21T06:55:38;31.13;;;19.50;;
60722;SDS011;46574;52.818;6.516;2023-11-21T06:58:04;28.90;;;18.17;;
60722;SDS011;46574;52.818;6.516;2023-11-21T07:00:30;27.85;;;18.35;;
60722;SDS011;46574;52.818;6.516;2023-11-21T07:02:56;27.85;;;18.35;;
60722;SDS011;46574;52.818;6.516;2023-11-21T07:05:22;35.55;;;19.25;;
60722;SDS011;46574;52.818;6.516;2023-11-21T07:07:48;27.92;;;17.48;;
60722;SDS011;46574;52.818;6.516;2023-11-21T07:10:14;35.45;;;18.05;;
60722;SDS011;46574;52.818;6.516;2023-11-21T07:12:40;23.65;;;14.90;;
60722;SDS011;46574;52.818;6.516;2023-11-21T07:15:06;25.58;;;16.42;;
60722;SDS011;46574;52.818;6.516;2023-11-21T07:17:37;25.53;;;15.37;;
60722;SDS011;46574;52.818;6.516;2023-11-21T07:22:29;25.92;;;16.33;;
60722;SDS011;46574;52.818;6.516;2023-11-21T07:24:55;30.85;;;15.70;;
60722;SDS011;46574;52.818;6.516;2023-11-21T07:27:23;28.15;;;16.15;;
60722;SDS011;46574;52.818;6.516;2023-11-21T07:29:49;29.23;;;14.93;;
60722;SDS011;46574;52.818;6.516;2023-11-21T07:32:15;37.20;;;17.15;;
60722;SDS011;46574;52.818;6.516;2023-11-21T07:34:41;28.10;;;14.85;;
60722;SDS011;46574;52.818;6.516;2023-11-21T07:37:07;25.52;;;14.85;;
60722;SDS011;46574;52.818;6.516;2023-11-21T07:39:34;22.25;;;13.13;;
60722;SDS011;46574;52.818;6.516;2023-11-21T07:42:01;26.83;;;13.77;;
60722;SDS011;46574;52.818;6.516;2023-11-21T07:44:27;26.17;;;13.60;;
60722;SDS011;46574;52.818;6.516;2023-11-21T07:46:54;23.63;;;13.10;;
60722;SDS011;46574;52.818;6.516;2023-11-21T07:49:22;23.25;;;13.43;;
60722;SDS011;46574;52.818;6.516;2023-11-21T07:51:49;21.58;;;13.05;;
60722;SDS011;46574;52.818;6.516;2023-11-21T07:54:16;26.55;;;14.43;;
60722;SDS011;46574;52.818;6.516;2023-11-21T07:56:41;27.45;;;13.95;;
60722;SDS011;46574;52.818;6.516;2023-11-21T07:59:07;26.85;;;14.48;;
60722;SDS011;46574;52.818;6.516;2023-11-21T08:01:33;25.77;;;14.02;;
60722;SDS011;46574;52.818;6.516;2023-11-21T08:03:59;26.08;;;14.63;;
60722;SDS011;46574;52.818;6.516;2023-11-21T08:06:28;28.92;;;15.38;;
60722;SDS011;46574;52.818;6.516;2023-11-21T08:08:58;27.00;;;13.70;;
60722;SDS011;46574;52.818;6.516;2023-11-21T08:11:24;24.40;;;13.48;;
60722;SDS011;46574;52.818;6.516;2023-11-21T08:13:49;21.05;;;12.55;;
60722;SDS011;46574;52.818;6.516;2023-11-21T08:16:15;28.23;;;14.25;;
60722;SDS011;46574;52.818;6.516;2023-11-21T08:18:42;30.63;;;14.98;;
60722;SDS011;46574;52.818;6.516;2023-11-21T08:21:07;34.17;;;16.05;;
60722;SDS011;46574;52.818;6.516;2023-11-21T08:23:33;22.80;;;12.60;;
60722;SDS011;46574;52.818;6.516;2023-11-21T08:25:59;26.52;;;14.95;;
60722;SDS011;46574;52.818;6.516;2023-11-21T08:28:25;23.27;;;12.27;;
60722;SDS011;46574;52.818;6.516;2023-11-21T08:30:51;31.48;;;14.43;;
60722;SDS011;46574;52.818;6.516;2023-11-21T08:33:17;29.27;;;14.02;;
60722;SDS011;46574;52.818;6.516;2023-11-21T08:35:43;24.17;;;13.10;;
60722;SDS011;46574;52.818;6.516;2023-11-21T08:38:10;27.95;;;14.15;;
60722;SDS011;46574;52.818;6.516;2023-11-21T08:40:37;29.00;;;15.15;;
60722;SDS011;46574;52.818;6.516;2023-11-21T08:43:03;26.80;;;13.35;;
60722;SDS011;46574;52.818;6.516;2023-11-21T08:45:29;27.50;;;13.35;;
60722;SDS011;46574;52.818;6.516;2023-11-21T08:47:56;24.52;;;12.45;;
60722;SDS011;46574;52.818;6.516;2023-11-21T08:50:21;26.98;;;13.60;;
60722;SDS011;46574;52.818;6.516;2023-11-21T08:52:47;26.63;;;13.00;;
60722;SDS011;46574;52.818;6.516;2023-11-21T08:55:13;21.48;;;12.50;;
60722;SDS011;46574;52.818;6.516;2023-11-21T08:57:40;24.98;;;12.05;;
60722;SDS011;46574;52.818;6.516;2023-11-21T09:00:09;23.85;;;11.55;;
60722;SDS011;46574;52.818;6.516;2023-11-21T09:02:37;22.40;;;11.98;;
60722;SDS011;46574;52.818;6.516;2023-11-21T09:05:06;22.95;;;11.43;;
60722;SDS011;46574;52.818;6.516;2023-11-21T09:07:36;22.63;;;11.82;;
60722;SDS011;46574;52.818;6.516;2023-11-21T09:10:05;31.17;;;13.93;;
60722;SDS011;46574;52.818;6.516;2023-11-21T09:12:33;33.20;;;13.95;;
60722;SDS011;46574;52.818;6.516;2023-11-21T09:15:01;35.92;;;15.32;;
60722;SDS011;46574;52.818;6.516;2023-11-21T09:17:30;31.83;;;14.38;;
60722;SDS011;46574;52.818;6.516;2023-11-21T09:19:56;30.85;;;13.95;;
60722;SDS011;46574;52.818;6.516;2023-11-21T09:22:22;28.05;;;13.65;;
60722;SDS011;46574;52.818;6.516;2023-11-21T09:24:50;29.42;;;13.20;;
60722;SDS011;46574;52.818;6.516;2023-11-21T09:27:16;27.30;;;13.95;;
60722;SDS011;46574;52.818;6.516;2023-11-21T09:29:42;30.35;;;14.23;;
60722;SDS011;46574;52.818;6.516;2023-11-21T09:32:08;33.40;;;15.95;;
60722;SDS011;46574;52.818;6.516;2023-11-21T09:34:37;34.92;;;17.40;;
60722;SDS011;46574;52.818;6.516;2023-11-21T09:37:06;32.15;;;17.40;;
60722;SDS011;46574;52.818;6.516;2023-11-21T09:39:33;30.60;;;18.35;;
60722;SDS011;46574;52.818;6.516;2023-11-21T09:42:10;32.28;;;18.10;;
60722;SDS011;46574;52.818;6.516;2023-11-21T09:47:26;32.05;;;18.48;;
60722;SDS011;46574;52.818;6.516;2023-11-21T09:49:53;38.10;;;19.75;;
60722;SDS011;46574;52.818;6.516;2023-11-21T09:52:22;35.55;;;20.00;;
60722;SDS011;46574;52.818;6.516;2023-11-21T09:57:18;42.42;;;23.10;;
60722;SDS011;46574;52.818;6.516;2023-11-21T09:59:46;41.88;;;22.50;;
60722;SDS011;46574;52.818;6.516;2023-11-21T10:02:15;42.78;;;22.92;;
60722;SDS011;46574;52.818;6.516;2023-11-21T10:04:44;46.22;;;22.50;;
60722;SDS011;46574;52.818;6.516;2023-11-21T10:07:11;41.63;;;22.25;;
60722;SDS011;46574;52.818;6.516;2023-11-21T10:09:40;44.78;;;23.05;;
60722;SDS011;46574;52.818;6.516;2023-11-21T10:12:07;39.53;;;22.23;;
60722;SDS011;46574;52.818;6.516;2023-11-21T10:14:35;36.70;;;20.63;;
60722;SDS011;46574;52.818;6.516;2023-11-21T10:17:05;37.80;;;20.08;;
60722;SDS011;46574;52.818;6.516;2023-11-21T10:19:33;36.65;;;20.83;;
60722;SDS011;46574;52.818;6.516;2023-11-21T10:22:01;35.42;;;19.63;;
60722;SDS011;46574;52.818;6.516;2023-11-21T10:24:28;42.00;;;22.85;;
60722;SDS011;46574;52.818;6.516;2023-11-21T10:26:54;37.47;;;22.20;;
60722;SDS011;46574;52.818;6.516;2023-11-21T10:29:20;38.33;;;22.17;;
60722;SDS011;46574;52.818;6.516;2023-11-21T10:31:48;42.15;;;22.95;;
60722;SDS011;46574;52.818;6.516;2023-11-21T10:36:45;38.33;;;22.55;;
60722;SDS011;46574;52.818;6.516;2023-11-21T10:39:17;41.03;;;23.67;;
60722;SDS011;46574;52.818;6.516;2023-11-21T10:41:44;37.67;;;21.80;;
60722;SDS011;46574;52.818;6.516;2023-11-21T10:44:13;36.60;;;21.40;;
60722;SDS011;46574;52.818;6.516;2023-11-21T10:46:46;34.50;;;20.95;;
60722;SDS011;46574;52.818;6.516;2023-11-21T10:49:16;33.58;;;19.45;;
60722;SDS011;46574;52.818;6.516;2023-11-21T10:51:43;32.37;;;19.67;;
60722;SDS011;46574;52.818;6.516;2023-11-21T10:54:09;32.58;;;18.52;;
60722;SDS011;46574;52.818;6.516;2023-11-21T10:56:35;31.88;;;18.83;;
60722;SDS011;46574;52.818;6.516;2023-11-21T10:59:06;34.17;;;18.88;;
60722;SDS011;46574;52.818;6.516;2023-11-21T11:01:36;34.75;;;19.45;;
60722;SDS011;46574;52.818;6.516;2023-11-21T11:04:02;29.48;;;18.05;;
60722;SDS011;46574;52.818;6.516;2023-11-21T11:06:31;33.00;;;18.75;;
60722;SDS011;46574;52.818;6.516;2023-11-21T11:08:58;29.05;;;18.23;;
60722;SDS011;46574;52.818;6.516;2023-11-21T11:11:27;31.05;;;17.42;;
60722;SDS011;46574;52.818;6.516;2023-11-21T11:13:55;28.00;;;17.48;;
60722;SDS011;46574;52.818;6.516;2023-11-21T11:16:21;27.20;;;17.27;;
60722;SDS011;46574;52.818;6.516;2023-11-21T11:18:49;26.47;;;17.17;;
60722;SDS011;46574;52.818;6.516;2023-11-21T11:23:59;21.92;;;15.35;;
60722;SDS011;46574;52.818;6.516;2023-11-21T11:26:42;24.15;;;15.57;;
60722;SDS011;46574;52.818;6.516;2023-11-21T11:29:34;22.98;;;15.80;;
60722;SDS011;46574;52.818;6.516;2023-11-21T11:32:16;19.05;;;13.63;;
60722;SDS011;46574;52.818;6.516;2023-11-21T11:34:50;19.83;;;13.57;;
60722;SDS011;46574;52.818;6.516;2023-11-21T11:37:24;18.90;;;12.48;;
60722;SDS011;46574;52.818;6.516;2023-11-21T11:39:50;16.25;;;11.73;;
60722;SDS011;46574;52.818;6.516;2023-11-21T11:42:16;15.85;;;11.82;;
60722;SDS011;46574;52.818;6.516;2023-11-21T11:47:15;14.23;;;10.68;;
60722;SDS011;46574;52.818;6.516;2023-11-21T11:50:00;13.98;;;10.90;;
60722;SDS011;46574;52.818;6.516;2023-11-21T11:52:35;15.80;;;11.30;;
60722;SDS011;46574;52.818;6.516;2023-11-21T11:55:06;13.32;;;11.30;;
60722;SDS011;46574;52.818;6.516;2023-11-21T11:57:35;12.30;;;10.70;;
60722;SDS011;46574;52.818;6.516;2023-11-21T12:00:17;13.25;;;10.05;;
60722;SDS011;46574;52.818;6.516;2023-11-21T12:02:53;14.15;;;11.23;;
60722;SDS011;46574;52.818;6.516;2023-11-21T12:05:22;12.52;;;10.30;;
60722;SDS011;46574;52.818;6.516;2023-11-21T12:10:26;11.55;;;9.82;;
60722;SDS011;46574;52.818;6.516;2023-11-21T12:12:55;11.73;;;10.45;;
60722;SDS011;46574;52.818;6.516;2023-11-21T12:15:23;12.55;;;10.30;;
60722;SDS011;46574;52.818;6.516;2023-11-21T12:17:55;14.13;;;10.05;;
60722;SDS011;46574;52.818;6.516;2023-11-21T12:20:22;10.82;;;9.43;;
60722;SDS011;46574;52.818;6.516;2023-11-21T12:22:49;12.88;;;10.20;;
60722;SDS011;46574;52.818;6.516;2023-11-21T12:25:16;11.15;;;9.55;;
60722;SDS011;46574;52.818;6.516;2023-11-21T12:27:47;12.32;;;9.93;;
60722;SDS011;46574;52.818;6.516;2023-11-21T12:30:17;11.93;;;9.95;;
60722;SDS011;46574;52.818;6.516;2023-11-21T12:32:44;11.43;;;8.80;;
60722;SDS011;46574;52.818;6.516;2023-11-21T12:35:12;12.32;;;9.70;;
60722;SDS011;46574;52.818;6.516;2023-11-21T12:37:38;12.93;;;10.30;;
60722;SDS011;46574;52.818;6.516;2023-11-21T12:40:06;12.82;;;9.45;;
60722;SDS011;46574;52.818;6.516;2023-11-21T12:42:37;11.45;;;10.05;;
60722;SDS011;46574;52.818;6.516;2023-11-21T12:45:08;12.95;;;9.65;;
60722;SDS011;46574;52.818;6.516;2023-11-21T12:47:45;11.65;;;9.07;;
60722;SDS011;46574;52.818;6.516;2023-11-21T12:50:34;12.05;;;9.38;;
60722;SDS011;46574;52.818;6.516;2023-11-21T12:53:02;12.52;;;9.50;;
60722;SDS011;46574;52.818;6.516;2023-11-21T12:55:30;10.15;;;8.52;;
60722;SDS011;46574;52.818;6.516;2023-11-21T12:57:57;13.77;;;9.07;;
60722;SDS011;46574;52.818;6.516;2023-11-21T13:00:32;10.00;;;8.85;;
60722;SDS011;46574;52.818;6.516;2023-11-21T13:03:02;11.20;;;8.35;;
60722;SDS011;46574;52.818;6.516;2023-11-21T13:05:36;10.25;;;8.15;;
60722;SDS011;46574;52.818;6.516;2023-11-21T13:08:15;9.15;;;7.63;;
60722;SDS011;46574;52.818;6.516;2023-11-21T13:13:12;10.60;;;8.63;;
60722;SDS011;46574;52.818;6.516;2023-11-21T13:18:15;10.20;;;8.27;;
60722;SDS011;46574;52.818;6.516;2023-11-21T13:20:42;10.52;;;8.30;;
60722;SDS011;46574;52.818;6.516;2023-11-21T13:23:11;12.07;;;7.82;;
60722;SDS011;46574;52.818;6.516;2023-11-21T13:25:38;9.35;;;7.95;;
60722;SDS011;46574;52.818;6.516;2023-11-21T13:28:06;8.85;;;7.53;;
60722;SDS011;46574;52.818;6.516;2023-11-21T13:30:32;10.52;;;8.25;;
60722;SDS011;46574;52.818;6.516;2023-11-21T13:33:01;9.23;;;7.75;;
60722;SDS011;46574;52.818;6.516;2023-11-21T13:35:32;11.07;;;8.02;;
60722;SDS011;46574;52.818;6.516;2023-11-21T13:38:07;10.27;;;8.27;;
60722;SDS011;46574;52.818;6.516;2023-11-21T13:40:35;8.98;;;7.80;;
60722;SDS011;46574;52.818;6.516;2023-11-21T13:43:17;9.05;;;7.68;;
60722;SDS011;46574;52.818;6.516;2023-11-21T13:45:46;10.23;;;8.02;;
60722;SDS011;46574;52.818;6.516;2023-11-21T13:48:13;8.45;;;7.50;;
60722;SDS011;46574;52.818;6.516;2023-11-21T13:50:42;10.50;;;8.43;;
60722;SDS011;46574;52.818;6.516;2023-11-21T13:53:14;10.80;;;8.10;;
60722;SDS011;46574;52.818;6.516;2023-11-21T13:55:52;9.35;;;8.15;;
60722;SDS011;46574;52.818;6.516;2023-11-21T13:58:25;10.93;;;8.32;;
60722;SDS011;46574;52.818;6.516;2023-11-21T14:01:07;9.68;;;7.38;;
60722;SDS011;46574;52.818;6.516;2023-11-21T14:03:42;11.25;;;8.18;;
60722;SDS011;46574;52.818;6.516;2023-11-21T14:06:17;10.35;;;7.93;;
60722;SDS011;46574;52.818;6.516;2023-11-21T14:08:49;12.05;;;7.45;;
60722;SDS011;46574;52.818;6.516;2023-11-21T14:11:15;10.02;;;8.25;;
60722;SDS011;46574;52.818;6.516;2023-11-21T14:13:45;9.32;;;7.90;;
60722;SDS011;46574;52.818;6.516;2023-11-21T14:16:13;9.27;;;7.65;;
60722;SDS011;46574;52.818;6.516;2023-11-21T14:18:42;10.20;;;8.10;;
60722;SDS011;46574;52.818;6.516;2023-11-21T14:21:36;11.77;;;8.52;;
60722;SDS011;46574;52.818;6.516;2023-11-21T14:24:02;10.98;;;8.13;;
60722;SDS011;46574;52.818;6.516;2023-11-21T14:26:32;11.45;;;8.45;;
60722;SDS011;46574;52.818;6.516;2023-11-21T14:28:58;10.32;;;8.30;;
60722;SDS011;46574;52.818;6.516;2023-11-21T14:31:24;10.05;;;7.82;;
60722;SDS011;46574;52.818;6.516;2023-11-21T14:33:49;10.32;;;8.20;;
60722;SDS011;46574;52.818;6.516;2023-11-21T14:36:15;10.90;;;8.05;;
60722;SDS011;46574;52.818;6.516;2023-11-21T14:38:42;9.65;;;7.50;;
60722;SDS011;46574;52.818;6.516;2023-11-21T14:41:07;9.55;;;7.70;;
60722;SDS011;46574;52.818;6.516;2023-11-21T14:43:34;12.15;;;8.18;;
60722;SDS011;46574;52.818;6.516;2023-11-21T14:46:01;9.65;;;8.25;;
60722;SDS011;46574;52.818;6.516;2023-11-21T14:48:28;9.60;;;8.35;;
60722;SDS011;46574;52.818;6.516;2023-11-21T14:51:21;8.82;;;7.15;;
60722;SDS011;46574;52.818;6.516;2023-11-21T14:53:55;10.00;;;8.20;;